LONG BEACH CHANNEL, CA - 215

GPS Positions

GPS Time
Latitude
Degrees
Longitude
Degrees
Gap
 
Distance
NM
Speed
Knots
Direction
Degrees
2018 Apr 17, 23:43 33.70040° -118.20034° 30 min 0.02 0.00
135°
2018 Apr 17, 23:13 33.70042° -118.20036° 30 min 0.02 0.01
167°
2018 Apr 17, 22:43 33.70048° -118.20038° 30 min 0.02 0.01
117°
2018 Apr 17, 22:13 33.70050° -118.20042° 30 min 0.02 0.01
124°
2018 Apr 17, 21:43 33.70053° -118.20049° 30 min 0.02 0.01
100°
2018 Apr 17, 21:13 33.70055° -118.20061° 30 min 0.01 0.01
90°
2018 Apr 17, 20:43 33.70055° -118.20072° 30 min 0.01 0.01
50°
2018 Apr 17, 20:13 33.70049° -118.20081° 30 min 0.01 0.00
180°
2018 Apr 17, 19:43 33.70050° -118.20081° 30 min 0.01 0.01
46°
2018 Apr 17, 19:13 33.70047° -118.20085° 30 min 0.01 0.00
2018 Apr 17, 18:43 33.70044° -118.20085° 30 min 0.01 0.00
90°
2018 Apr 17, 18:13 33.70044° -118.20087° 30 min 0.01 0.01
2018 Apr 17, 17:43 33.70040° -118.20087° 30 min 0.01 0.01
243°
2018 Apr 17, 17:13 33.70042° -118.20083° 30 min 0.01 0.04
291°
2018 Apr 17, 16:43 33.70031° -118.20049° 30 min 0.01 0.01
301°
2018 Apr 17, 16:13 33.70027° -118.20040° 30 min 0.01 0.01
340°
2018 Apr 17, 15:43 33.70022° -118.20038° 30 min 0.02 0.00
203°
2018 Apr 17, 15:13 33.70025° -118.20036° 30 min 0.02 0.01
180°
2018 Apr 17, 14:43 33.70033° -118.20036° 30 min 0.02 0.00
180°
2018 Apr 17, 14:13 33.70034° -118.20036° 30 min 0.02 0.00
320°
2018 Apr 17, 13:43 33.70031° -118.20034° 30 min 0.02 0.00
315°
2018 Apr 17, 13:13 33.70029° -118.20032° 30 min 0.02 0.01
16°
2018 Apr 17, 12:43 33.70023° -118.20034° 30 min 0.02 0.00
225°
2018 Apr 17, 12:13 33.70025° -118.20032° 30 min 0.02 0.00
2018 Apr 17, 11:43 33.70025° -118.20032° 30 min 0.02 0.00
90°
2018 Apr 17, 11:13 33.70025° -118.20034° 30 min 0.02 0.01
203°
2018 Apr 17, 10:43 33.70029° -118.20032° 30 min 0.02 0.00
59°
2018 Apr 17, 10:13 33.70028° -118.20034° 30 min 0.02 0.00
2018 Apr 17, 09:43 33.70027° -118.20034° 30 min 0.02 0.00
2018 Apr 17, 09:13 33.70026° -118.20034° 30 min 0.02 0.01
2018 Apr 17, 08:43 33.70021° -118.20034° 30 min 0.02 0.01
180°
2018 Apr 17, 08:13 33.70026° -118.20034° 30 min 0.02 0.01
166°
2018 Apr 17, 07:43 33.70034° -118.20036° 30 min 0.02 0.00
180°
2018 Apr 17, 07:13 33.70037° -118.20036° 30 min 0.02 0.00
2018 Apr 17, 06:43 33.70037° -118.20036° 30 min 0.02 0.01
336°
2018 Apr 17, 06:13 33.70033° -118.20034° 30 min 0.02 0.00
2018 Apr 17, 05:43 33.70031° -118.20034° 30 min 0.02 0.00
2018 Apr 17, 05:13 33.70031° -118.20034° 30 min 0.02 0.00
328°
2018 Apr 17, 04:43 33.70028° -118.20032° 30 min 0.02 0.00
2018 Apr 17, 04:13 33.70028° -118.20032° 30 min 0.02 0.00
180°
2018 Apr 17, 03:43 33.70029° -118.20032° 30 min 0.02 0.00
225°
2018 Apr 17, 03:13 33.70031° -118.20029° 30 min 0.02 0.00
90°
2018 Apr 17, 02:43 33.70031° -118.20032° 30 min 0.02 0.00
180°
2018 Apr 17, 02:13 33.70034° -118.20032° 30 min 0.02 0.00
2018 Apr 17, 01:43 33.70034° -118.20032° 30 min 0.02 0.00
180°
2018 Apr 17, 01:13 33.70036° -118.20032° 30 min 0.02 0.00
2018 Apr 17, 00:43 33.70035° -118.20032° 30 min 0.02 0.00
180°
2018 Apr 17, 00:13 33.70036° -118.20032° 30 min 0.02 0.00
301°
2018 Apr 16, 23:43 33.70035° -118.20029° 30 min 0.02 0.00
40°
2018 Apr 16, 23:13 33.70033° -118.20032° 30 min 0.02 0.00
180°
2018 Apr 16, 22:43 33.70034° -118.20032° 30 min 0.02 0.00
140°
2018 Apr 16, 22:13 33.70036° -118.20034° 30 min 0.02 0.01
200°
2018 Apr 16, 21:43 33.70041° -118.20032° 30 min 0.02 0.00
90°
2018 Apr 16, 21:13 33.70041° -118.20036° 30 min 0.02 0.01
163°
2018 Apr 16, 20:43 33.70045° -118.20038° 30 min 0.02 0.00
107°
2018 Apr 16, 20:13 33.70047° -118.20042° 30 min 0.01 0.00
135°
2018 Apr 16, 19:43 33.70049° -118.20045° 30 min 0.01 0.01
124°
2018 Apr 16, 19:13 33.70052° -118.20051° 30 min 0.01 0.01
90°
2018 Apr 16, 18:43 33.70052° -118.20058° 30 min 0.01 0.01
83°
2018 Apr 16, 18:13 33.70051° -118.20068° 30 min 0.01 0.01
72°
2018 Apr 16, 17:43 33.70049° -118.20077° 30 min 0.01 0.00
292°
2018 Apr 16, 17:13 33.70048° -118.20074° 30 min 0.01 0.01
156°
2018 Apr 16, 16:43 33.70052° -118.20077° 30 min 0.01 0.00
331°
2018 Apr 16, 16:13 33.70049° -118.20074° 30 min 0.01 0.01
236°
2018 Apr 16, 15:43 33.70052° -118.20068° 30 min 0.01 0.00
239°
2018 Apr 16, 15:13 33.70053° -118.20066° 30 min 0.01 0.00
287°
2018 Apr 16, 14:43 33.70052° -118.20061° 30 min 0.01 0.01
288°
2018 Apr 16, 14:13 33.70050° -118.20053° 30 min 0.01 0.01
310°
2018 Apr 16, 13:43 33.70045° -118.20047° 30 min 0.01 0.01
318°
2018 Apr 16, 13:13 33.70041° -118.20042° 30 min 0.01 0.00
301°
2018 Apr 16, 12:43 33.70040° -118.20040° 30 min 0.01 0.00
2018 Apr 16, 12:13 33.70039° -118.20040° 30 min 0.01 0.00
40°
2018 Apr 16, 11:43 33.70037° -118.20042° 30 min 0.01 0.00
292°
2018 Apr 16, 11:13 33.70036° -118.20040° 30 min 0.01 0.00
270°
2018 Apr 16, 10:43 33.70036° -118.20038° 30 min 0.01 0.00
180°
2018 Apr 16, 10:13 33.70038° -118.20038° 30 min 0.01 0.00
59°
2018 Apr 16, 09:43 33.70037° -118.20040° 30 min 0.01 0.01
35°
2018 Apr 16, 09:13 33.70031° -118.20045° 30 min 0.01 0.02
2018 Apr 16, 08:43 33.70015° -118.20047° 30 min 0.01 0.02
66°
2018 Apr 16, 08:13 33.70010° -118.20061° 30 min 0.01 0.01
90°
2018 Apr 16, 07:43 33.70010° -118.20072° 30 min 0.01 0.01
283°
2018 Apr 16, 07:13 33.70009° -118.20066° 30 min 0.01 0.00
301°
2018 Apr 16, 06:43 33.70008° -118.20064° 30 min 0.02 0.00
2018 Apr 16, 06:13 33.70008° -118.20064° 30 min 0.02 0.00
270°
2018 Apr 16, 05:43 33.70008° -118.20059° 30 min 0.02 0.02
245°
2018 Apr 16, 05:13 33.70013° -118.20045° 30 min 0.02 0.01
243°
2018 Apr 16, 04:43 33.70015° -118.20040° 30 min 0.02 0.01
218°
2018 Apr 16, 04:13 33.70022° -118.20034° 30 min 0.02 0.00
180°
2018 Apr 16, 03:43 33.70024° -118.20034° 30 min 0.02 0.00
180°
2018 Apr 16, 03:13 33.70027° -118.20034° 30 min 0.02 0.00
180°
2018 Apr 16, 02:43 33.70028° -118.20034° 30 min 0.02 0.00
180°
2018 Apr 16, 02:13 33.70029° -118.20034° 30 min 0.02 0.00
248°
2018 Apr 16, 01:43 33.70030° -118.20032° 30 min 0.02 0.00
90°
2018 Apr 16, 01:13 33.70030° -118.20034° 30 min 0.02 0.00
220°
2018 Apr 16, 00:43 33.70033° -118.20032° 30 min 0.02 0.00
2018 Apr 16, 00:13 33.70033° -118.20032° 30 min 0.02 0.00
180°
2018 Apr 15, 23:43 33.70034° -118.20032° 30 min 0.02 0.00
180°
2018 Apr 15, 23:13 33.70036° -118.20032° 30 min 0.02 0.00
180°
2018 Apr 15, 22:43 33.70037° -118.20032° 30 min 0.02 0.00
180°
2018 Apr 15, 22:13 33.70038° -118.20032° 30 min 0.02 0.00
59°
2018 Apr 15, 21:43 33.70037° -118.20034° 30 min 0.02 0.00
32°
2018 Apr 15, 21:13 33.70034° -118.20036° 30 min 0.02 0.00
151°
2018 Apr 15, 20:43 33.70036° -118.20038° 30 min 0.01 0.00
270°
2018 Apr 15, 20:13 33.70036° -118.20036° 30 min 0.02 0.00
121°
2018 Apr 15, 19:43 33.70037° -118.20038° 30 min 0.01 0.00
180°
2018 Apr 15, 19:13 33.70038° -118.20038° 30 min 0.01 0.01
135°
2018 Apr 15, 18:43 33.70045° -118.20047° 30 min 0.01 0.03
90°
2018 Apr 15, 18:13 33.70045° -118.20072° 30 min 0.01 0.00
73°
2018 Apr 15, 17:43 33.70044° -118.20077° 30 min 0.01 0.01
44°
2018 Apr 15, 17:13 33.70039° -118.20083° 30 min 0.01 0.02
217°
2018 Apr 15, 16:43 33.70051° -118.20072° 30 min 0.01 0.01
59°
2018 Apr 15, 16:13 33.70049° -118.20077° 30 min 0.01 0.02
265°
2018 Apr 15, 15:43 33.70050° -118.20061° 30 min 0.01 0.01
280°
2018 Apr 15, 15:13 33.70048° -118.20049° 30 min 0.01 0.00
331°
2018 Apr 15, 14:43 33.70045° -118.20047° 30 min 0.01 0.00
2018 Apr 15, 14:13 33.70044° -118.20047° 30 min 0.01 0.00
301°
2018 Apr 15, 13:43 33.70043° -118.20045° 30 min 0.01 0.00
180°
2018 Apr 15, 13:13 33.70044° -118.20045° 30 min 0.01 0.01
325°
2018 Apr 15, 12:43 33.70039° -118.20040° 30 min 0.01 0.00
2018 Apr 15, 12:13 33.70038° -118.20040° 30 min 0.01 0.00
301°
2018 Apr 15, 11:43 33.70037° -118.20038° 30 min 0.01 0.00
2018 Apr 15, 11:13 33.70037° -118.20038° 30 min 0.01 0.00
2018 Apr 15, 10:43 33.70035° -118.20038° 30 min 0.01 0.00
107°
2018 Apr 15, 10:13 33.70036° -118.20042° 30 min 0.01 0.00
2018 Apr 15, 09:43 33.70033° -118.20042° 30 min 0.01 0.00
180°
2018 Apr 15, 09:13 33.70034° -118.20042° 30 min 0.01 0.01
22°
2018 Apr 15, 08:43 33.70024° -118.20047° 30 min 0.01 0.02
51°
2018 Apr 15, 08:13 33.70011° -118.20066° 30 min 0.01 0.01
152°
2018 Apr 15, 07:43 33.70021° -118.20072° 30 min 0.01 0.01
76°
2018 Apr 15, 07:13 33.70019° -118.20081° 30 min 0.01 0.00
90°
2018 Apr 15, 06:43 33.70019° -118.20083° 30 min 0.01 0.00
2018 Apr 15, 06:13 33.70016° -118.20083° 30 min 0.01 0.00
140°
2018 Apr 15, 05:43 33.70019° -118.20085° 30 min 0.01 0.00
331°
2018 Apr 15, 05:13 33.70015° -118.20083° 30 min 0.01 0.01
291°
2018 Apr 15, 04:43 33.70013° -118.20077° 30 min 0.01 0.02
294°
2018 Apr 15, 04:13 33.70008° -118.20061° 30 min 0.02 0.02
249°
2018 Apr 15, 03:43 33.70012° -118.20047° 30 min 0.02 0.01
222°
2018 Apr 15, 03:13 33.70021° -118.20038° 30 min 0.02 0.00
228°
2018 Apr 15, 02:43 33.70022° -118.20036° 30 min 0.02 0.00
239°
2018 Apr 15, 02:13 33.70023° -118.20034° 30 min 0.02 0.00
2018 Apr 15, 01:43 33.70022° -118.20034° 30 min 0.02 0.01
200°
2018 Apr 15, 01:13 33.70027° -118.20032° 30 min 0.02 0.01
180°
2018 Apr 15, 00:43 33.70031° -118.20032° 30 min 0.02 0.00
32°
2018 Apr 15, 00:13 33.70028° -118.20034° 30 min 0.02 0.00
239°
2018 Apr 14, 23:43 33.70029° -118.20032° 30 min 0.02 0.00
180°
2018 Apr 14, 23:13 33.70031° -118.20032° 30 min 0.02 0.00
180°
2018 Apr 14, 22:43 33.70035° -118.20032° 30 min 0.02 0.00
135°
2018 Apr 14, 22:13 33.70037° -118.20034° 30 min 0.02 0.00
180°
2018 Apr 14, 21:43 33.70039° -118.20034° 30 min 0.02 0.00
126°
2018 Apr 14, 21:13 33.70041° -118.20038° 30 min 0.02 0.00
135°
2018 Apr 14, 20:43 33.70043° -118.20040° 30 min 0.01 0.01
132°
2018 Apr 14, 20:13 33.70047° -118.20045° 30 min 0.01 0.02
102°
2018 Apr 14, 19:43 33.70050° -118.20061° 30 min 0.01 0.02
67°
2018 Apr 14, 19:13 33.70042° -118.20083° 30 min 0.01 0.00
45°
2018 Apr 14, 18:43 33.70040° -118.20085° 30 min 0.01 0.00
180°
2018 Apr 14, 18:13 33.70041° -118.20085° 30 min 0.01 0.00
248°
2018 Apr 14, 17:43 33.70042° -118.20083° 30 min 0.01 0.00
90°
2018 Apr 14, 17:13 33.70042° -118.20087° 30 min 0.01 0.00
270°
2018 Apr 14, 16:43 33.70042° -118.20085° 30 min 0.01 0.00
2018 Apr 14, 16:13 33.70040° -118.20085° 30 min 0.01 0.00
180°
2018 Apr 14, 15:43 33.70042° -118.20085° 30 min 0.01 0.01
228°
2018 Apr 14, 15:13 33.70047° -118.20079° 30 min 0.01 0.02
274°
2018 Apr 14, 14:43 33.70045° -118.20061° 30 min 0.01 0.01
288°
2018 Apr 14, 14:13 33.70042° -118.20049° 30 min 0.01 0.00
284°
2018 Apr 14, 13:43 33.70041° -118.20045° 30 min 0.01 0.01
337°
2018 Apr 14, 13:13 33.70037° -118.20042° 30 min 0.01 0.00
180°
2018 Apr 14, 12:43 33.70039° -118.20042° 30 min 0.01 0.00
301°
2018 Apr 14, 12:13 33.70038° -118.20040° 30 min 0.01 0.00
180°
2018 Apr 14, 11:43 33.70039° -118.20040° 30 min 0.01 0.00
320°
2018 Apr 14, 11:13 33.70037° -118.20038° 30 min 0.01 0.00
121°
2018 Apr 14, 10:43 33.70038° -118.20040° 30 min 0.01 0.01
2018 Apr 14, 10:13 33.70034° -118.20040° 30 min 0.01 0.00
239°
2018 Apr 14, 09:43 33.70035° -118.20038° 30 min 0.01 0.00
29°
2018 Apr 14, 09:13 33.70031° -118.20040° 30 min 0.01 0.00
2018 Apr 14, 08:43 33.70029° -118.20040° 30 min 0.01 0.00
2018 Apr 14, 08:13 33.70029° -118.20040° 30 min 0.01 0.00
29°
2018 Apr 14, 07:43 33.70026° -118.20042° 30 min 0.01 0.02
53°
2018 Apr 14, 07:13 33.70016° -118.20058° 30 min 0.01 0.02
69°
2018 Apr 14, 06:43 33.70011° -118.20074° 30 min 0.01 0.00
121°
2018 Apr 14, 06:13 33.70012° -118.20077° 30 min 0.01 0.00
2018 Apr 14, 05:43 33.70011° -118.20077° 30 min 0.01 0.01
292°
2018 Apr 14, 05:13 33.70009° -118.20070° 30 min 0.01 0.00
312°
2018 Apr 14, 04:43 33.70008° -118.20068° 30 min 0.02 0.02
260°
2018 Apr 14, 04:13 33.70010° -118.20053° 30 min 0.02 0.02
230°
2018 Apr 14, 03:43 33.70021° -118.20038° 30 min 0.02 0.00
228°
2018 Apr 14, 03:13 33.70022° -118.20036° 30 min 0.02 0.01
204°
2018 Apr 14, 02:43 33.70026° -118.20034° 30 min 0.02 0.00
2018 Apr 14, 02:13 33.70026° -118.20034° 30 min 0.02 0.00
180°
2018 Apr 14, 01:43 33.70028° -118.20034° 30 min 0.02 0.00
212°
2018 Apr 14, 01:13 33.70031° -118.20032° 30 min 0.02 0.00
2018 Apr 14, 00:43 33.70031° -118.20032° 30 min 0.02 0.00
2018 Apr 14, 00:13 33.70031° -118.20032° 30 min 0.02 0.00
2018 Apr 13, 23:43 33.70029° -118.20032° 30 min 0.02 0.00
180°
2018 Apr 13, 23:13 33.70033° -118.20032° 30 min 0.02 0.00
2018 Apr 13, 22:43 33.70031° -118.20032° 30 min 0.02 0.00
180°
2018 Apr 13, 22:13 33.70033° -118.20032° 30 min 0.02 0.00
180°
2018 Apr 13, 21:43 33.70035° -118.20032° 30 min 0.02 0.00
180°
2018 Apr 13, 21:13 33.70037° -118.20032° 30 min 0.02 0.00
121°
2018 Apr 13, 20:43 33.70038° -118.20034° 30 min 0.02 0.00
2018 Apr 13, 20:13 33.70036° -118.20034° 30 min 0.02 0.01
163°
2018 Apr 13, 19:43 33.70042° -118.20036° 30 min 0.02 0.01
132°
2018 Apr 13, 19:13 33.70047° -118.20042° 30 min 0.01 0.03
93°
2018 Apr 13, 18:43 33.70048° -118.20072° 30 min 0.01 0.01
68°
2018 Apr 13, 18:13 33.70045° -118.20079° 30 min 0.01 0.01
43°
2018 Apr 13, 17:43 33.70042° -118.20083° 30 min 0.01 0.01
51°
2018 Apr 13, 17:13 33.70039° -118.20087° 30 min 0.01 0.00
2018 Apr 13, 16:43 33.70039° -118.20087° 30 min 0.01 0.00
2018 Apr 13, 16:13 33.70039° -118.20087° 30 min 0.01 0.00
180°
2018 Apr 13, 15:43 33.70041° -118.20087° 30 min 0.01 0.00
180°
2018 Apr 13, 15:13 33.70042° -118.20087° 30 min 0.01 0.00
2018 Apr 13, 14:43 33.70041° -118.20087° 30 min 0.01 0.00
180°
2018 Apr 13, 14:13 33.70042° -118.20087° 30 min 0.01 0.00
45°
2018 Apr 13, 13:43 33.70040° -118.20090° 30 min 0.01 0.00
225°
2018 Apr 13, 13:13 33.70042° -118.20087° 30 min 0.01 0.01
2018 Apr 13, 12:43 33.70038° -118.20087° 30 min 0.01 0.01
228°
2018 Apr 13, 12:13 33.70041° -118.20083° 30 min 0.01 0.04
298°
2018 Apr 13, 11:43 33.70026° -118.20049° 30 min 0.01 0.01
314°
2018 Apr 13, 11:13 33.70023° -118.20045° 30 min 0.01 0.00
331°
2018 Apr 13, 10:43 33.70020° -118.20042° 30 min 0.01 0.00
209°
2018 Apr 13, 10:13 33.70023° -118.20040° 30 min 0.01 0.00
29°
2018 Apr 13, 09:43 33.70020° -118.20042° 30 min 0.01 0.01
35°
2018 Apr 13, 09:13 33.70014° -118.20047° 30 min 0.02 0.00
2018 Apr 13, 08:43 33.70013° -118.20047° 30 min 0.02 0.01
56°
2018 Apr 13, 08:13 33.70010° -118.20053° 30 min 0.02 0.00
32°
2018 Apr 13, 07:43 33.70007° -118.20055° 30 min 0.02 0.00
59°
2018 Apr 13, 07:13 33.70006° -118.20058° 30 min 0.02 0.00
90°
2018 Apr 13, 06:43 33.70006° -118.20061° 30 min 0.02 0.01
261°
2018 Apr 13, 06:13 33.70007° -118.20053° 30 min 0.02 0.00
73°
2018 Apr 13, 05:43 33.70006° -118.20058° 30 min 0.02 0.00
253°
2018 Apr 13, 05:13 33.70007° -118.20053° 30 min 0.02 0.00
73°
2018 Apr 13, 04:43 33.70006° -118.20058° 30 min 0.02 0.00
90°
2018 Apr 13, 04:13 33.70006° -118.20059° 30 min 0.02 0.00
90°
2018 Apr 13, 03:43 33.70006° -118.20061° 30 min 0.02 0.01
257°
2018 Apr 13, 03:13 33.70007° -118.20055° 30 min 0.02 0.01
239°
2018 Apr 13, 02:43 33.70011° -118.20047° 30 min 0.02 0.01
231°
2018 Apr 13, 02:13 33.70014° -118.20042° 30 min 0.02 0.01
207°
2018 Apr 13, 01:43 33.70022° -118.20038° 30 min 0.02 0.00
234°
2018 Apr 13, 01:13 33.70024° -118.20034° 30 min 0.02 0.00
112°
2018 Apr 13, 00:43 33.70025° -118.20036° 30 min 0.02 0.01
228°
2018 Apr 13, 00:13 33.70028° -118.20032° 30 min 0.02 0.00
180°
2018 Apr 12, 23:43 33.70029° -118.20032° 30 min 0.02 0.00
180°
2018 Apr 12, 23:13 33.70031° -118.20032° 30 min 0.02 0.00
180°
2018 Apr 12, 22:43 33.70035° -118.20032° 30 min 0.02 0.00
180°
2018 Apr 12, 22:13 33.70037° -118.20032° 30 min 0.02 0.01
2018 Apr 12, 21:43 33.70031° -118.20032° 30 min 0.02 0.00
180°
2018 Apr 12, 21:13 33.70033° -118.20032° 30 min 0.02 0.00
90°
2018 Apr 12, 20:43 33.70033° -118.20034° 30 min 0.02 0.00
270°
2018 Apr 12, 20:13 33.70033° -118.20032° 30 min 0.02 0.00
90°
2018 Apr 12, 19:43 33.70033° -118.20034° 30 min 0.02 0.02
21°
2018 Apr 12, 19:13 33.70020° -118.20040° 30 min 0.02 0.02
37°
2018 Apr 12, 18:43 33.70008° -118.20051° 30 min 0.02 0.01
80°
2018 Apr 12, 18:13 33.70006° -118.20064° 30 min 0.02 0.00
121°
2018 Apr 12, 17:43 33.70007° -118.20066° 30 min 0.02 0.00
180°
2018 Apr 12, 17:13 33.70008° -118.20066° 30 min 0.02 0.00
140°
2018 Apr 12, 16:43 33.70010° -118.20068° 30 min 0.01 0.02
275°
2018 Apr 12, 16:13 33.70009° -118.20053° 30 min 0.02 0.02
224°
2018 Apr 12, 15:43 33.70022° -118.20038° 30 min 0.02 0.00
180°
2018 Apr 12, 15:13 33.70024° -118.20038° 30 min 0.02 0.00
214°
2018 Apr 12, 14:43 33.70026° -118.20036° 30 min 0.02 0.00
209°
2018 Apr 12, 14:13 33.70029° -118.20034° 30 min 0.02 0.00
2018 Apr 12, 13:43 33.70028° -118.20034° 30 min 0.02 0.00
180°
2018 Apr 12, 13:13 33.70030° -118.20034° 30 min 0.02 0.00
180°
2018 Apr 12, 12:43 33.70031° -118.20034° 30 min 0.02 0.00
180°
2018 Apr 12, 12:13 33.70033° -118.20034° 30 min 0.02 0.00
239°
2018 Apr 12, 11:43 33.70034° -118.20032° 30 min 0.02 0.00
148°
2018 Apr 12, 11:13 33.70037° -118.20034° 30 min 0.02 0.00
2018 Apr 12, 10:43 33.70037° -118.20034° 30 min 0.02 0.00
2018 Apr 12, 10:13 33.70036° -118.20034° 30 min 0.02 0.00
90°
2018 Apr 12, 09:43 33.70036° -118.20036° 30 min 0.02 0.00
180°
2018 Apr 12, 09:13 33.70037° -118.20036° 30 min 0.02 0.00
90°
2018 Apr 12, 08:43 33.70037° -118.20038° 30 min 0.01 0.00
2018 Apr 12, 08:13 33.70037° -118.20038° 30 min 0.01 0.00
2018 Apr 12, 07:43 33.70037° -118.20038° 30 min 0.01 0.00
180°
2018 Apr 12, 07:13 33.70038° -118.20038° 30 min 0.01 0.00
2018 Apr 12, 06:43 33.70035° -118.20038° 30 min 0.01 0.01
2018 Apr 12, 06:13 33.70029° -118.20038° 30 min 0.01 0.01
152°
2018 Apr 12, 05:43 33.70037° -118.20042° 30 min 0.01 0.00
107°
2018 Apr 12, 05:13 33.70038° -118.20047° 30 min 0.01 0.00
160°
2018 Apr 12, 04:43 33.70041° -118.20049° 30 min 0.01 0.01
345°
2018 Apr 12, 04:13 33.70037° -118.20047° 30 min 0.01 0.00
2018 Apr 12, 03:43 33.70037° -118.20047° 30 min 0.01 0.00
281°
2018 Apr 12, 03:13 33.70036° -118.20042° 30 min 0.01 0.01
313°
2018 Apr 12, 02:43 33.70029° -118.20034° 30 min 0.02 0.01
26°
2018 Apr 12, 02:13 33.70023° -118.20038° 30 min 0.02 0.01
211°
2018 Apr 12, 01:43 33.70028° -118.20034° 30 min 0.02 0.00
180°
2018 Apr 12, 01:13 33.70031° -118.20034° 30 min 0.02 0.00
239°
2018 Apr 12, 00:43 33.70033° -118.20032° 30 min 0.02 0.00
59°
2018 Apr 12, 00:13 33.70031° -118.20034° 30 min 0.02 0.01
180°
2018 Apr 11, 23:43 33.70036° -118.20034° 30 min 0.02 0.00
180°
2018 Apr 11, 23:13 33.70037° -118.20034° 30 min 0.02 0.00
2018 Apr 11, 22:43 33.70037° -118.20034° 30 min 0.02 0.00
90°
2018 Apr 11, 22:13 33.70037° -118.20036° 30 min 0.02 0.00
2018 Apr 11, 21:43 33.70037° -118.20036° 30 min 0.02 0.01
165°
2018 Apr 11, 21:13 33.70041° -118.20038° 30 min 0.02 0.00
331°
2018 Apr 11, 20:43 33.70039° -118.20036° 30 min 0.02 0.00
212°
2018 Apr 11, 20:13 33.70042° -118.20034° 30 min 0.02 0.00
180°
2018 Apr 11, 19:43 33.70043° -118.20034° 30 min 0.02 0.00
45°
2018 Apr 11, 19:13 33.70041° -118.20036° 30 min 0.02 0.00
180°
2018 Apr 11, 18:43 33.70043° -118.20036° 30 min 0.02 0.00
126°
2018 Apr 11, 18:13 33.70045° -118.20040° 30 min 0.02 0.01
127°
2018 Apr 11, 17:43 33.70051° -118.20049° 30 min 0.01 0.01
96°
2018 Apr 11, 17:13 33.70052° -118.20061° 30 min 0.01 0.01
53°
2018 Apr 11, 16:43 33.70047° -118.20070° 30 min 0.01 0.00
90°
2018 Apr 11, 16:13 33.70047° -118.20072° 30 min 0.01 0.01
211°
2018 Apr 11, 15:43 33.70052° -118.20068° 30 min 0.01 0.00
2018 Apr 11, 15:13 33.70052° -118.20068° 30 min 0.01 0.01
270°
2018 Apr 11, 14:43 33.70052° -118.20061° 30 min 0.01 0.00
90°
2018 Apr 11, 14:13 33.70052° -118.20064° 30 min 0.01 0.00
253°
2018 Apr 11, 13:43 33.70053° -118.20059° 30 min 0.01 0.00
90°
2018 Apr 11, 13:13 33.70053° -118.20061° 30 min 0.01 0.00
2018 Apr 11, 12:43 33.70052° -118.20061° 30 min 0.01 0.00
2018 Apr 11, 12:13 33.70052° -118.20061° 30 min 0.01 0.00
270°
2018 Apr 11, 11:43 33.70052° -118.20058° 30 min 0.01 0.01
312°
2018 Apr 11, 11:13 33.70049° -118.20053° 30 min 0.01 0.01
291°
2018 Apr 11, 10:43 33.70047° -118.20047° 30 min 0.01 0.01
301°
2018 Apr 11, 10:13 33.70044° -118.20042° 30 min 0.01 0.01
2018 Apr 11, 09:43 33.70040° -118.20042° 30 min 0.01 0.00
287°
2018 Apr 11, 09:13 33.70039° -118.20038° 30 min 0.01 0.00
2018 Apr 11, 08:43 33.70037° -118.20038° 30 min 0.01 0.00
270°
2018 Apr 11, 08:13 33.70037° -118.20036° 30 min 0.02 0.00
2018 Apr 11, 07:43 33.70035° -118.20036° 30 min 0.02 0.00
157°
2018 Apr 11, 07:13 33.70038° -118.20038° 30 min 0.01 0.01
132°
2018 Apr 11, 06:43 33.70041° -118.20042° 30 min 0.01 0.00
180°
2018 Apr 11, 06:13 33.70042° -118.20042° 30 min 0.01 0.01
325°
2018 Apr 11, 05:43 33.70037° -118.20038° 30 min 0.01 0.01
343°
2018 Apr 11, 05:13 33.70033° -118.20036° 30 min 0.02 0.00
270°
2018 Apr 11, 04:43 33.70033° -118.20034° 30 min 0.02 0.00
2018 Apr 11, 04:13 33.70030° -118.20034° 30 min 0.02 0.00
180°
2018 Apr 11, 03:43 33.70033° -118.20034° 30 min 0.02 0.00
2018 Apr 11, 03:13 33.70029° -118.20034° 30 min 0.02 0.00
2018 Apr 11, 02:43 33.70029° -118.20034° 30 min 0.02 0.00
180°
2018 Apr 11, 02:13 33.70030° -118.20034° 30 min 0.02 0.00
2018 Apr 11, 01:43 33.70030° -118.20034° 30 min 0.02 0.00
180°
2018 Apr 11, 01:13 33.70033° -118.20034° 30 min 0.02 0.00
2018 Apr 11, 00:43 33.70033° -118.20034° 30 min 0.02 0.00
2018 Apr 11, 00:13 33.70033° -118.20034° 30 min 0.02 0.00
2018 Apr 10, 23:43 33.70031° -118.20034° 30 min 0.02 0.00
180°
2018 Apr 10, 23:13 33.70033° -118.20034° 30 min 0.02 0.00
180°
2018 Apr 10, 22:43 33.70034° -118.20034° 30 min 0.02 0.00
180°
2018 Apr 10, 22:13 33.70036° -118.20034° 30 min 0.02 0.00
148°
2018 Apr 10, 21:43 33.70039° -118.20036° 30 min 0.02 0.00
151°
2018 Apr 10, 21:13 33.70041° -118.20038° 30 min 0.02 0.00
180°
2018 Apr 10, 20:43 33.70042° -118.20038° 30 min 0.02 0.00
2018 Apr 10, 20:13 33.70040° -118.20038° 30 min 0.02 0.01
59°
2018 Apr 10, 19:43 33.70038° -118.20042° 30 min 0.01 0.00
270°
2018 Apr 10, 19:13 33.70038° -118.20040° 30 min 0.01 0.01
138°
2018 Apr 10, 18:43 33.70042° -118.20045° 30 min 0.01 0.00
90°
2018 Apr 10, 18:13 33.70042° -118.20047° 30 min 0.01 0.00
180°
2018 Apr 10, 17:43 33.70043° -118.20047° 30 min 0.01 0.00
151°
2018 Apr 10, 17:13 33.70045° -118.20049° 30 min 0.01 0.00
312°
2018 Apr 10, 16:43 33.70044° -118.20047° 30 min 0.01 0.00
132°
2018 Apr 10, 16:13 33.70045° -118.20049° 30 min 0.01 0.01
323°
2018 Apr 10, 15:43 33.70041° -118.20045° 30 min 0.01 0.00
59°
2018 Apr 10, 15:13 33.70040° -118.20047° 30 min 0.01 0.00
180°
2018 Apr 10, 14:43 33.70042° -118.20047° 30 min 0.01 0.01
325°
2018 Apr 10, 14:13 33.70037° -118.20042° 30 min 0.01 0.00
2018 Apr 10, 13:43 33.70037° -118.20042° 30 min 0.01 0.01
2018 Apr 10, 13:13 33.70026° -118.20042° 30 min 0.01 0.01
204°
2018 Apr 10, 12:43 33.70030° -118.20040° 30 min 0.01 0.01
180°
2018 Apr 10, 12:13 33.70037° -118.20040° 30 min 0.01 0.00
292°
2018 Apr 10, 11:43 33.70036° -118.20038° 30 min 0.01 0.00
2018 Apr 10, 11:13 33.70033° -118.20038° 30 min 0.01 0.00
2018 Apr 10, 10:43 33.70033° -118.20038° 30 min 0.01 0.01
2018 Apr 10, 10:13 33.70026° -118.20038° 30 min 0.02 0.00
180°
2018 Apr 10, 09:43 33.70029° -118.20038° 30 min 0.01 0.00
2018 Apr 10, 09:13 33.70027° -118.20038° 30 min 0.01 0.00
180°
2018 Apr 10, 08:43 33.70029° -118.20038° 30 min 0.01 0.00
2018 Apr 10, 08:13 33.70029° -118.20038° 30 min 0.01 0.00
135°
2018 Apr 10, 07:43 33.70031° -118.20040° 30 min 0.01 0.00
2018 Apr 10, 07:13 33.70031° -118.20040° 30 min 0.01 0.01
164°
2018 Apr 10, 06:43 33.70038° -118.20042° 30 min 0.01 0.00
140°
2018 Apr 10, 06:13 33.70040° -118.20045° 30 min 0.01 0.00
2018 Apr 10, 05:43 33.70039° -118.20045° 30 min 0.01 0.00
301°
2018 Apr 10, 05:13 33.70038° -118.20042° 30 min 0.01 0.00
2018 Apr 10, 04:43 33.70038° -118.20042° 30 min 0.01 0.01
336°
2018 Apr 10, 04:13 33.70029° -118.20038° 30 min 0.01 0.00
2018 Apr 10, 03:43 33.70027° -118.20038° 30 min 0.01 0.00
180°
2018 Apr 10, 03:13 33.70028° -118.20038° 30 min 0.01 0.00
312°
2018 Apr 10, 02:43 33.70027° -118.20036° 30 min 0.02 0.00
320°
2018 Apr 10, 02:13 33.70025° -118.20034° 30 min 0.02 0.00
180°
2018 Apr 10, 01:43 33.70026° -118.20034° 30 min 0.02 0.00
140°
2018 Apr 10, 01:13 33.70028° -118.20036° 30 min 0.02 0.00
212°
2018 Apr 10, 00:43 33.70031° -118.20034° 30 min 0.02 0.00
2018 Apr 10, 00:13 33.70029° -118.20034° 30 min 0.02 0.00
180°
2018 Apr 09, 23:43 33.70033° -118.20034° 30 min 0.02 0.00
270°
2018 Apr 09, 23:13 33.70033° -118.20032° 30 min 0.02 0.00
180°
2018 Apr 09, 22:43 33.70035° -118.20032° 30 min 0.02 0.00
180°
2018 Apr 09, 22:13 33.70037° -118.20032° 30 min 0.02 0.00
90°
2018 Apr 09, 21:43 33.70037° -118.20034° 30 min 0.02 0.00
2018 Apr 09, 21:13 33.70037° -118.20034° 30 min 0.02 0.00
180°
2018 Apr 09, 20:43 33.70038° -118.20034° 30 min 0.02 0.00
2018 Apr 09, 20:13 33.70037° -118.20034° 30 min 0.02 0.00
90°
2018 Apr 09, 19:43 33.70037° -118.20036° 30 min 0.02 0.00
315°
2018 Apr 09, 19:13 33.70035° -118.20034° 30 min 0.02 0.00
59°
2018 Apr 09, 18:43 33.70034° -118.20036° 30 min 0.02 0.00
180°
2018 Apr 09, 18:13 33.70036° -118.20036° 30 min 0.02 0.00
180°
2018 Apr 09, 17:43 33.70037° -118.20036° 30 min 0.02 0.01
17°
2018 Apr 09, 17:13 33.70033° -118.20038° 30 min 0.01 0.01
14°
2018 Apr 09, 16:43 33.70025° -118.20040° 30 min 0.01 0.01
200°
2018 Apr 09, 16:13 33.70030° -118.20038° 30 min 0.01 0.01
2018 Apr 09, 15:43 33.70025° -118.20038° 30 min 0.02 0.02
172°
2018 Apr 09, 15:13 33.70039° -118.20040° 30 min 0.01 0.01
121°
2018 Apr 09, 14:43 33.70041° -118.20045° 30 min 0.01 0.01
156°
2018 Apr 09, 14:13 33.70045° -118.20047° 30 min 0.01 0.01
121°
2018 Apr 09, 13:43 33.70049° -118.20053° 30 min 0.01 0.00
315°
2018 Apr 09, 13:13 33.70047° -118.20051° 30 min 0.01 0.00
2018 Apr 09, 12:43 33.70047° -118.20051° 30 min 0.01 0.00
270°
2018 Apr 09, 12:13 33.70047° -118.20049° 30 min 0.01 0.00
90°
2018 Apr 09, 11:43 33.70047° -118.20051° 30 min 0.01 0.00
107°
2018 Apr 09, 11:13 33.70048° -118.20055° 30 min 0.01 0.01
301°
2018 Apr 09, 10:43 33.70044° -118.20049° 30 min 0.01 0.01
343°
2018 Apr 09, 10:13 33.70040° -118.20047° 30 min 0.01 0.00
301°
2018 Apr 09, 09:43 33.70039° -118.20045° 30 min 0.01 0.00
320°
2018 Apr 09, 09:13 33.70037° -118.20042° 30 min 0.01 0.00
2018 Apr 09, 08:43 33.70037° -118.20042° 30 min 0.01 0.00
2018 Apr 09, 08:13 33.70036° -118.20042° 30 min 0.01 0.01
342°
2018 Apr 09, 07:43 33.70030° -118.20040° 30 min 0.01 0.00
328°
2018 Apr 09, 07:13 33.70027° -118.20038° 30 min 0.01 0.00
32°
2018 Apr 09, 06:43 33.70024° -118.20040° 30 min 0.01 0.01
16°
2018 Apr 09, 06:13 33.70018° -118.20042° 30 min 0.02 0.00
2018 Apr 09, 05:43 33.70015° -118.20042° 30 min 0.02 0.01
239°
2018 Apr 09, 05:13 33.70018° -118.20038° 30 min 0.02 0.00
2018 Apr 09, 04:43 33.70018° -118.20038° 30 min 0.02 0.00
180°
2018 Apr 09, 04:13 33.70019° -118.20038° 30 min 0.02 0.00
203°
2018 Apr 09, 03:43 33.70022° -118.20036° 30 min 0.02 0.00
212°
2018 Apr 09, 03:13 33.70025° -118.20034° 30 min 0.02 0.00
2018 Apr 09, 02:43 33.70025° -118.20034° 30 min 0.02 0.00
209°
2018 Apr 09, 02:13 33.70028° -118.20032° 30 min 0.02 0.00
148°
2018 Apr 09, 01:43 33.70031° -118.20034° 30 min 0.02 0.00
2018 Apr 09, 01:13 33.70031° -118.20034° 30 min 0.02 0.00
2018 Apr 09, 00:43 33.70030° -118.20034° 30 min 0.02 0.00
180°
2018 Apr 09, 00:13 33.70031° -118.20034° 30 min 0.02 0.01
180°
2018 Apr 08, 23:43 33.70037° -118.20034° 30 min 0.02 0.00
151°
2018 Apr 08, 23:13 33.70040° -118.20036° 30 min 0.02 0.01
134°
2018 Apr 08, 22:43 33.70043° -118.20040° 30 min 0.01 0.00
270°
2018 Apr 08, 22:13 33.70043° -118.20038° 30 min 0.02 0.01
121°
2018 Apr 08, 21:43 33.70047° -118.20045° 30 min 0.01 0.00
135°
2018 Apr 08, 21:13 33.70049° -118.20047° 30 min 0.01 0.01
310°
2018 Apr 08, 20:43 33.70042° -118.20038° 30 min 0.02 0.01
104°
2018 Apr 08, 20:13 33.70044° -118.20049° 30 min 0.01 0.00
209°
2018 Apr 08, 19:43 33.70047° -118.20047° 30 min 0.01 0.00
2018 Apr 08, 19:13 33.70044° -118.20047° 30 min 0.01 0.01
301°
2018 Apr 08, 18:43 33.70042° -118.20042° 30 min 0.01 0.01
2018 Apr 08, 18:13 33.70038° -118.20042° 30 min 0.01 0.00
180°
2018 Apr 08, 17:43 33.70039° -118.20042° 30 min 0.01 0.00
2018 Apr 08, 17:13 33.70038° -118.20042° 30 min 0.01 0.01
150°
2018 Apr 08, 16:43 33.70044° -118.20047° 30 min 0.01 0.01
114°
2018 Apr 08, 16:13 33.70047° -118.20053° 30 min 0.01 0.01
99°
2018 Apr 08, 15:43 33.70048° -118.20061° 30 min 0.01 0.00
29°
2018 Apr 08, 15:13 33.70044° -118.20064° 30 min 0.01 0.01
78°
2018 Apr 08, 14:43 33.70042° -118.20077° 30 min 0.01 0.00
90°
2018 Apr 08, 14:13 33.70042° -118.20081° 30 min 0.01 0.00
90°
2018 Apr 08, 13:43 33.70042° -118.20083° 30 min 0.01 0.01
2018 Apr 08, 13:13 33.70036° -118.20083° 30 min 0.01 0.01
59°
2018 Apr 08, 12:43 33.70034° -118.20087° 30 min 0.01 0.01
207°
2018 Apr 08, 12:13 33.70041° -118.20083° 30 min 0.01 0.01
23°
2018 Apr 08, 11:43 33.70037° -118.20085° 30 min 0.01 0.00
180°
2018 Apr 08, 11:13 33.70039° -118.20085° 30 min 0.01 0.00
2018 Apr 08, 10:43 33.70039° -118.20085° 30 min 0.01 0.01
51°
2018 Apr 08, 10:13 33.70036° -118.20090° 30 min 0.01 0.00
331°
2018 Apr 08, 09:43 33.70033° -118.20087° 30 min 0.01 0.01
2018 Apr 08, 09:13 33.70027° -118.20087° 30 min 0.01 0.02
317°
2018 Apr 08, 08:43 33.70018° -118.20077° 30 min 0.01 0.02
288°
2018 Apr 08, 08:13 33.70013° -118.20061° 30 min 0.01 0.02
239°
2018 Apr 08, 07:43 33.70021° -118.20047° 30 min 0.01 0.01
261°
2018 Apr 08, 07:13 33.70022° -118.20038° 30 min 0.02 0.01
180°
2018 Apr 08, 06:43 33.70027° -118.20038° 30 min 0.01 0.00
148°
2018 Apr 08, 06:13 33.70030° -118.20040° 30 min 0.01 0.00
140°
2018 Apr 08, 05:43 33.70033° -118.20042° 30 min 0.01 0.02
352°
2018 Apr 08, 05:13 33.70020° -118.20040° 30 min 0.02 0.01
38°
2018 Apr 08, 04:43 33.70012° -118.20047° 30 min 0.02 0.02
74°
2018 Apr 08, 04:13 33.70009° -118.20061° 30 min 0.01 0.01
270°
2018 Apr 08, 03:43 33.70009° -118.20055° 30 min 0.02 0.01
259°
2018 Apr 08, 03:13 33.70010° -118.20049° 30 min 0.02 0.01
224°
2018 Apr 08, 02:43 33.70015° -118.20042° 30 min 0.02 0.01
200°
2018 Apr 08, 02:13 33.70021° -118.20040° 30 min 0.02 0.03
114°
2018 Apr 08, 01:43 33.70030° -118.20066° 30 min 0.00 0.00
90°
2018 Apr 08, 01:13 33.70030° -118.20070° 30 min 0.00 0.01
166°
2018 Apr 08, 00:43 33.70038° -118.20072° 30 min 0.00 0.01
81°
2018 Apr 08, 00:13 33.70037° -118.20081° 30 min 0.01 0.00
180°
2018 Apr 07, 23:43 33.70040° -118.20081° 30 min 0.01 0.01
11°
2018 Apr 07, 23:13 33.70034° -118.20083° 30 min 0.01 0.03
228°
2018 Apr 07, 22:43 33.70050° -118.20061° 30 min 0.01 0.01
79°
2018 Apr 07, 22:13 33.70049° -118.20068° 30 min 0.01 0.00
90°
2018 Apr 07, 21:43 33.70049° -118.20072° 30 min 0.01 0.00
220°
2018 Apr 07, 21:13 33.70051° -118.20070° 30 min 0.01 0.01
79°
2018 Apr 07, 20:43 33.70050° -118.20077° 30 min 0.01 0.00
2018 Apr 07, 20:13 33.70049° -118.20077° 30 min 0.01 0.00
45°
2018 Apr 07, 19:43 33.70047° -118.20079° 30 min 0.01 0.00
54°
2018 Apr 07, 19:13 33.70044° -118.20083° 30 min 0.01 0.00
234°
2018 Apr 07, 18:43 33.70047° -118.20079° 30 min 0.01 0.00
90°
2018 Apr 07, 18:13 33.70047° -118.20081° 30 min 0.01 0.00
225°
2018 Apr 07, 17:43 33.70049° -118.20079° 30 min 0.01 0.00
2018 Apr 07, 17:13 33.70049° -118.20079° 30 min 0.01 0.01
24°
2018 Apr 07, 16:43 33.70044° -118.20081° 30 min 0.01 0.00
180°
2018 Apr 07, 16:13 33.70047° -118.20081° 30 min 0.01 0.00
29°
2018 Apr 07, 15:43 33.70044° -118.20083° 30 min 0.01 0.01
42°
2018 Apr 07, 15:13 33.70040° -118.20087° 30 min 0.01 0.00
2018 Apr 07, 14:43 33.70039° -118.20087° 30 min 0.01 0.00
2018 Apr 07, 14:13 33.70038° -118.20087° 30 min 0.01 0.00
180°
2018 Apr 07, 13:43 33.70040° -118.20087° 30 min 0.01 0.01
2018 Apr 07, 13:13 33.70035° -118.20087° 30 min 0.01 0.00
135°
2018 Apr 07, 12:43 33.70037° -118.20090° 30 min 0.01 0.01
24°
2018 Apr 07, 12:13 33.70033° -118.20092° 30 min 0.01 0.00
270°
2018 Apr 07, 11:43 33.70033° -118.20090° 30 min 0.01 0.00
2018 Apr 07, 11:13 33.70030° -118.20090° 30 min 0.01 0.00
90°
2018 Apr 07, 10:43 33.70030° -118.20092° 30 min 0.01 0.00
2018 Apr 07, 10:13 33.70027° -118.20092° 30 min 0.01 0.00
180°
2018 Apr 07, 09:43 33.70029° -118.20092° 30 min 0.01 0.00
2018 Apr 07, 09:13 33.70026° -118.20092° 30 min 0.01 0.00
301°
2018 Apr 07, 08:43 33.70025° -118.20090° 30 min 0.01 0.00
180°
2018 Apr 07, 08:13 33.70026° -118.20090° 30 min 0.01 0.00
301°
2018 Apr 07, 07:43 33.70025° -118.20087° 30 min 0.01 0.00
2018 Apr 07, 07:13 33.70023° -118.20087° 30 min 0.01 0.01
301°
2018 Apr 07, 06:43 33.70021° -118.20083° 30 min 0.01 0.02
304°
2018 Apr 07, 06:13 33.70011° -118.20066° 30 min 0.01 0.01
276°
2018 Apr 07, 05:43 33.70010° -118.20053° 30 min 0.02 0.02
231°
2018 Apr 07, 05:13 33.70019° -118.20040° 30 min 0.02 0.01
23°
2018 Apr 07, 04:43 33.70014° -118.20042° 30 min 0.02 0.01
207°
2018 Apr 07, 04:13 33.70024° -118.20036° 30 min 0.02 0.00
225°
2018 Apr 07, 03:43 33.70026° -118.20034° 30 min 0.02 0.00
2018 Apr 07, 03:13 33.70026° -118.20034° 30 min 0.02 0.00
180°
2018 Apr 07, 02:43 33.70028° -118.20034° 30 min 0.02 0.00
135°
2018 Apr 07, 02:13 33.70030° -118.20036° 30 min 0.02 0.01
155°
2018 Apr 07, 01:43 33.70041° -118.20042° 30 min 0.01 0.01
114°
2018 Apr 07, 01:13 33.70044° -118.20051° 30 min 0.01 0.00
140°
2018 Apr 07, 00:43 33.70047° -118.20053° 30 min 0.01 0.00
225°
2018 Apr 07, 00:13 33.70049° -118.20051° 30 min 0.01 0.01
99°
2018 Apr 06, 23:43 33.70050° -118.20059° 30 min 0.01 0.00
107°
2018 Apr 06, 23:13 33.70051° -118.20064° 30 min 0.01 0.00
121°
2018 Apr 06, 22:43 33.70052° -118.20066° 30 min 0.01 0.01
77°
2018 Apr 06, 22:13 33.70051° -118.20072° 30 min 0.01 0.00
239°
2018 Apr 06, 21:43 33.70052° -118.20070° 30 min 0.01 0.01
61°
2018 Apr 06, 21:13 33.70047° -118.20081° 30 min 0.01 0.01
13°
2018 Apr 06, 20:43 33.70041° -118.20083° 30 min 0.01 0.00
180°
2018 Apr 06, 20:13 33.70044° -118.20083° 30 min 0.01 0.00
32°
2018 Apr 06, 19:43 33.70041° -118.20085° 30 min 0.01 0.01
200°
2018 Apr 06, 19:13 33.70047° -118.20083° 30 min 0.01 0.00
2018 Apr 06, 18:43 33.70047° -118.20083° 30 min 0.01 0.00
2018 Apr 06, 18:13 33.70044° -118.20083° 30 min 0.01 0.00
180°
2018 Apr 06, 17:43 33.70047° -118.20083° 30 min 0.01 0.00
40°
2018 Apr 06, 17:13 33.70044° -118.20085° 30 min 0.01 0.00
2018 Apr 06, 16:43 33.70042° -118.20085° 30 min 0.01 0.01
20°
2018 Apr 06, 16:13 33.70037° -118.20087° 30 min 0.01 0.00
2018 Apr 06, 15:43 33.70034° -118.20087° 30 min 0.01 0.00
29°
2018 Apr 06, 15:13 33.70030° -118.20090° 30 min 0.01 0.00
270°
2018 Apr 06, 14:43 33.70030° -118.20087° 30 min 0.01 0.01
162°
2018 Apr 06, 14:13 33.70036° -118.20090° 30 min 0.01 0.00
2018 Apr 06, 13:43 33.70036° -118.20090° 30 min 0.01 0.00
2018 Apr 06, 13:13 33.70035° -118.20090° 30 min 0.01 0.01
20°
2018 Apr 06, 12:43 33.70029° -118.20092° 30 min 0.01 0.00
270°
2018 Apr 06, 12:13 33.70029° -118.20090° 30 min 0.01 0.00
2018 Apr 06, 11:43 33.70027° -118.20090° 30 min 0.01 0.00
320°
2018 Apr 06, 11:13 33.70025° -118.20087° 30 min 0.01 0.00
2018 Apr 06, 10:43 33.70023° -118.20087° 30 min 0.01 0.00
2018 Apr 06, 10:13 33.70022° -118.20087° 30 min 0.01 0.01
309°
2018 Apr 06, 09:43 33.70019° -118.20083° 30 min 0.01 0.00
2018 Apr 06, 09:13 33.70018° -118.20083° 30 min 0.01 0.00
228°
2018 Apr 06, 08:43 33.70019° -118.20081° 30 min 0.01 0.01
315°
2018 Apr 06, 08:13 33.70011° -118.20072° 30 min 0.01 0.02
270°
2018 Apr 06, 07:43 33.70011° -118.20051° 30 min 0.02 0.00
301°
2018 Apr 06, 07:13 33.70010° -118.20049° 30 min 0.02 0.01
230°
2018 Apr 06, 06:43 33.70014° -118.20042° 30 min 0.02 0.01
220°
2018 Apr 06, 06:13 33.70019° -118.20038° 30 min 0.02 0.00
203°
2018 Apr 06, 05:43 33.70022° -118.20036° 30 min 0.02 0.00
29°
2018 Apr 06, 05:13 33.70020° -118.20038° 30 min 0.02 0.01
193°
2018 Apr 06, 04:43 33.70025° -118.20036° 30 min 0.02 0.00
180°
2018 Apr 06, 04:13 33.70026° -118.20036° 30 min 0.02 0.00
2018 Apr 06, 03:43 33.70026° -118.20036° 30 min 0.02 0.00
270°
2018 Apr 06, 03:13 33.70026° -118.20034° 30 min 0.02 0.00
180°
2018 Apr 06, 02:43 33.70029° -118.20034° 30 min 0.02 0.00
180°
2018 Apr 06, 02:13 33.70030° -118.20034° 30 min 0.02 0.00
140°
2018 Apr 06, 01:43 33.70033° -118.20036° 30 min 0.02 0.01
169°
2018 Apr 06, 01:13 33.70039° -118.20038° 30 min 0.01 0.00
180°
2018 Apr 06, 00:43 33.70041° -118.20038° 30 min 0.02 0.00
148°
2018 Apr 06, 00:13 33.70044° -118.20040° 30 min 0.01 0.00
121°
2018 Apr 05, 23:43 33.70045° -118.20042° 30 min 0.01 0.01
114°
2018 Apr 05, 23:13 33.70049° -118.20051° 30 min 0.01 0.02
95°
2018 Apr 05, 22:43 33.70050° -118.20066° 30 min 0.01 0.01
75°
2018 Apr 05, 22:13 33.70048° -118.20074° 30 min 0.01 0.00
112°
2018 Apr 05, 21:43 33.70049° -118.20077° 30 min 0.01 0.01
63°
2018 Apr 05, 21:13 33.70047° -118.20081° 30 min 0.01 0.01
15°
2018 Apr 05, 20:43 33.70042° -118.20083° 30 min 0.01 0.00
2018 Apr 05, 20:13 33.70040° -118.20083° 30 min 0.01 0.00
90°
2018 Apr 05, 19:43 33.70040° -118.20087° 30 min 0.01 0.01
243°
2018 Apr 05, 19:13 33.70042° -118.20083° 30 min 0.01 0.00
180°
2018 Apr 05, 18:43 33.70044° -118.20083° 30 min 0.01 0.00
234°
2018 Apr 05, 18:13 33.70047° -118.20079° 30 min 0.01 0.01
241°
2018 Apr 05, 17:43 33.70051° -118.20070° 30 min 0.01 0.01
284°
2018 Apr 05, 17:13 33.70048° -118.20055° 30 min 0.01 0.01
303°
2018 Apr 05, 16:43 33.70043° -118.20047° 30 min 0.01 0.01
313°
2018 Apr 05, 16:13 33.70038° -118.20040° 30 min 0.01 0.01
336°
2018 Apr 05, 15:43 33.70034° -118.20038° 30 min 0.01 0.00
2018 Apr 05, 15:13 33.70033° -118.20038° 30 min 0.01 0.01
156°
2018 Apr 05, 14:43 33.70037° -118.20040° 30 min 0.01 0.00
2018 Apr 05, 14:13 33.70035° -118.20040° 30 min 0.01 0.00
90°
2018 Apr 05, 13:43 33.70035° -118.20042° 30 min 0.01 0.01
156°
2018 Apr 05, 13:13 33.70039° -118.20045° 30 min 0.01 0.01
143°
2018 Apr 05, 12:43 33.70043° -118.20049° 30 min 0.01 0.01
121°
2018 Apr 05, 12:13 33.70049° -118.20059° 30 min 0.01 0.01
76°
2018 Apr 05, 11:43 33.70047° -118.20068° 30 min 0.01 0.01
64°
2018 Apr 05, 11:13 33.70041° -118.20081° 30 min 0.01 0.01
13°
2018 Apr 05, 10:43 33.70036° -118.20083° 30 min 0.01 0.00
40°
2018 Apr 05, 10:13 33.70034° -118.20085° 30 min 0.01 0.00
320°
2018 Apr 05, 09:43 33.70031° -118.20083° 30 min 0.01 0.01
20°
2018 Apr 05, 09:13 33.70026° -118.20085° 30 min 0.01 0.02
337°
2018 Apr 05, 08:43 33.70014° -118.20079° 30 min 0.01 0.00
270°
2018 Apr 05, 08:13 33.70014° -118.20077° 30 min 0.01 0.01
295°
2018 Apr 05, 07:43 33.70010° -118.20066° 30 min 0.01 0.01
301°
2018 Apr 05, 07:13 33.70008° -118.20061° 30 min 0.02 0.01
252°
2018 Apr 05, 06:43 33.70011° -118.20049° 30 min 0.02 0.01
218°
2018 Apr 05, 06:13 33.70018° -118.20042° 30 min 0.02 0.01
231°
2018 Apr 05, 05:43 33.70021° -118.20038° 30 min 0.02 0.01
217°
2018 Apr 05, 05:13 33.70025° -118.20034° 30 min 0.02 0.00
2018 Apr 05, 04:43 33.70025° -118.20034° 30 min 0.02 0.01
180°
2018 Apr 05, 04:13 33.70030° -118.20034° 30 min 0.02 0.00
2018 Apr 05, 03:43 33.70029° -118.20034° 30 min 0.02 0.00
2018 Apr 05, 03:13 33.70027° -118.20034° 30 min 0.02 0.00
220°
2018 Apr 05, 02:43 33.70029° -118.20032° 30 min 0.02 0.01
156°
2018 Apr 05, 02:13 33.70034° -118.20034° 30 min 0.02 0.01
180°
2018 Apr 05, 01:43 33.70039° -118.20034° 30 min 0.02 0.00
2018 Apr 05, 01:13 33.70039° -118.20034° 30 min 0.02 0.00
180°
2018 Apr 05, 00:43 33.70041° -118.20034° 30 min 0.02 0.01
134°
2018 Apr 05, 00:13 33.70044° -118.20038° 30 min 0.02 0.01
121°
2018 Apr 04, 23:43 33.70047° -118.20042° 30 min 0.01 0.00
135°
2018 Apr 04, 23:13 33.70049° -118.20045° 30 min 0.01 0.01
137°
2018 Apr 04, 22:43 33.70052° -118.20049° 30 min 0.01 0.01
90°
2018 Apr 04, 22:13 33.70052° -118.20055° 30 min 0.01 0.00
110°
2018 Apr 04, 21:43 33.70053° -118.20059° 30 min 0.01 0.00
135°
2018 Apr 04, 21:13 33.70055° -118.20061° 30 min 0.01 0.01
62°
2018 Apr 04, 20:43 33.70052° -118.20068° 30 min 0.01 0.01
53°
2018 Apr 04, 20:13 33.70047° -118.20077° 30 min 0.01 0.00
2018 Apr 04, 19:43 33.70045° -118.20077° 30 min 0.01 0.00
180°
2018 Apr 04, 19:13 33.70047° -118.20077° 30 min 0.01 0.01
231°
2018 Apr 04, 18:43 33.70050° -118.20072° 30 min 0.01 0.00
250°
2018 Apr 04, 18:13 33.70051° -118.20068° 30 min 0.01 0.01
306°
2018 Apr 04, 17:43 33.70047° -118.20061° 30 min 0.01 0.01
255°
2018 Apr 04, 17:13 33.70049° -118.20053° 30 min 0.01 0.01
291°
2018 Apr 04, 16:43 33.70047° -118.20047° 30 min 0.01 0.01
333°
2018 Apr 04, 16:13 33.70039° -118.20042° 30 min 0.01 0.00
212°
2018 Apr 04, 15:43 33.70042° -118.20040° 30 min 0.01 0.00
2018 Apr 04, 15:13 33.70040° -118.20040° 30 min 0.01 0.00
320°
2018 Apr 04, 14:43 33.70038° -118.20038° 30 min 0.01 0.00
180°
2018 Apr 04, 14:13 33.70040° -118.20038° 30 min 0.02 0.01
2018 Apr 04, 13:43 33.70036° -118.20038° 30 min 0.01 0.00
90°
2018 Apr 04, 13:13 33.70036° -118.20040° 30 min 0.01 0.00
90°
2018 Apr 04, 12:43 33.70036° -118.20042° 30 min 0.01 0.00
112°
2018 Apr 04, 12:13 33.70037° -118.20045° 30 min 0.01 0.01
36°
2018 Apr 04, 11:43 33.70027° -118.20053° 30 min 0.01 0.02
43°
2018 Apr 04, 11:13 33.70018° -118.20064° 30 min 0.01 0.00
180°
2018 Apr 04, 10:43 33.70019° -118.20064° 30 min 0.01 0.01
325°
2018 Apr 04, 10:13 33.70013° -118.20059° 30 min 0.01 0.01
283°
2018 Apr 04, 09:43 33.70012° -118.20053° 30 min 0.01 0.00
29°
2018 Apr 04, 09:13 33.70009° -118.20055° 30 min 0.02 0.01
281°
2018 Apr 04, 08:43 33.70008° -118.20049° 30 min 0.02 0.01
195°
2018 Apr 04, 08:13 33.70012° -118.20047° 30 min 0.02 0.00
2018 Apr 04, 07:43 33.70011° -118.20047° 30 min 0.02 0.01
234°
2018 Apr 04, 07:13 33.70015° -118.20040° 30 min 0.02 0.01
204°
2018 Apr 04, 06:43 33.70020° -118.20038° 30 min 0.02 0.00
301°
2018 Apr 04, 06:13 33.70019° -118.20036° 30 min 0.02 0.00
180°
2018 Apr 04, 05:43 33.70020° -118.20036° 30 min 0.02 0.00
239°
2018 Apr 04, 05:13 33.70021° -118.20034° 30 min 0.02 0.00
180°
2018 Apr 04, 04:43 33.70022° -118.20034° 30 min 0.02 0.01
180°
2018 Apr 04, 04:13 33.70028° -118.20034° 30 min 0.02 0.00
180°
2018 Apr 04, 03:43 33.70029° -118.20034° 30 min 0.02 0.00
320°
2018 Apr 04, 03:13 33.70027° -118.20032° 30 min 0.02 0.00
180°
2018 Apr 04, 02:43 33.70029° -118.20032° 30 min 0.02 0.00
2018 Apr 04, 02:13 33.70029° -118.20032° 30 min 0.02 0.00
180°
2018 Apr 04, 01:43 33.70031° -118.20032° 30 min 0.02 0.00
180°
2018 Apr 04, 01:13 33.70033° -118.20032° 30 min 0.02 0.00
121°
2018 Apr 04, 00:43 33.70034° -118.20034° 30 min 0.02 0.00
180°
2018 Apr 04, 00:13 33.70035° -118.20034° 30 min 0.02 0.00
180°
2018 Apr 03, 23:43 33.70037° -118.20034° 30 min 0.02 0.00
180°
2018 Apr 03, 23:13 33.70038° -118.20034° 30 min 0.02 0.00
151°
2018 Apr 03, 22:43 33.70041° -118.20036° 30 min 0.02 0.01
143°
2018 Apr 03, 22:13 33.70045° -118.20040° 30 min 0.02 0.01
118°
2018 Apr 03, 21:43 33.70049° -118.20047° 30 min 0.01 0.00
151°
2018 Apr 03, 21:13 33.70051° -118.20049° 30 min 0.01 0.01
97°
2018 Apr 03, 20:43 33.70052° -118.20059° 30 min 0.01 0.01
90°
2018 Apr 03, 20:13 33.70052° -118.20068° 30 min 0.01 0.00
90°
2018 Apr 03, 19:43 33.70052° -118.20070° 30 min 0.01 0.01
59°
2018 Apr 03, 19:13 33.70049° -118.20077° 30 min 0.01 0.00
239°
2018 Apr 03, 18:43 33.70050° -118.20074° 30 min 0.01 0.00
2018 Apr 03, 18:13 33.70050° -118.20074° 30 min 0.01 0.00
2018 Apr 03, 17:43 33.70050° -118.20074° 30 min 0.01 0.01
270°
2018 Apr 03, 17:13 33.70050° -118.20068° 30 min 0.01 0.01
276°
2018 Apr 03, 16:43 33.70049° -118.20055° 30 min 0.01 0.01
288°
2018 Apr 03, 16:13 33.70047° -118.20049° 30 min 0.01 0.01
304°
2018 Apr 03, 15:43 33.70043° -118.20042° 30 min 0.01 0.00
2018 Apr 03, 15:13 33.70041° -118.20042° 30 min 0.01 0.00
2018 Apr 03, 14:43 33.70038° -118.20042° 30 min 0.01 0.00
270°
2018 Apr 03, 14:13 33.70038° -118.20040° 30 min 0.01 0.00
45°
2018 Apr 03, 13:43 33.70036° -118.20042° 30 min 0.01 0.00
301°
2018 Apr 03, 13:13 33.70035° -118.20040° 30 min 0.01 0.00
2018 Apr 03, 12:43 33.70031° -118.20040° 30 min 0.01 0.00
2018 Apr 03, 12:13 33.70031° -118.20040° 30 min 0.01 0.00
301°
2018 Apr 03, 11:43 33.70030° -118.20038° 30 min 0.01 0.02
57°
2018 Apr 03, 11:13 33.70022° -118.20053° 30 min 0.01 0.02
71°
2018 Apr 03, 10:43 33.70016° -118.20072° 30 min 0.01 0.01
68°
2018 Apr 03, 10:13 33.70014° -118.20079° 30 min 0.01 0.00
90°
2018 Apr 03, 09:43 33.70014° -118.20081° 30 min 0.01 0.00
132°
2018 Apr 03, 09:13 33.70015° -118.20083° 30 min 0.01 0.01
314°
2018 Apr 03, 08:43 33.70012° -118.20079° 30 min 0.01 0.00
2018 Apr 03, 08:13 33.70011° -118.20079° 30 min 0.01 0.01
301°
2018 Apr 03, 07:43 33.70008° -118.20072° 30 min 0.02 0.01
279°
2018 Apr 03, 07:13 33.70007° -118.20066° 30 min 0.02 0.01
270°
2018 Apr 03, 06:43 33.70007° -118.20058° 30 min 0.02 0.01
256°
2018 Apr 03, 06:13 33.70009° -118.20049° 30 min 0.02 0.00
209°
2018 Apr 03, 05:43 33.70011° -118.20047° 30 min 0.02 0.01
231°
2018 Apr 03, 05:13 33.70014° -118.20042° 30 min 0.02 0.01
228°
2018 Apr 03, 04:43 33.70018° -118.20038° 30 min 0.02 0.01
197°
2018 Apr 03, 04:13 33.70022° -118.20036° 30 min 0.02 0.00
212°
2018 Apr 03, 03:43 33.70025° -118.20034° 30 min 0.02 0.00
180°
2018 Apr 03, 03:13 33.70028° -118.20034° 30 min 0.02 0.00
2018 Apr 03, 02:43 33.70028° -118.20034° 30 min 0.02 0.00
180°
2018 Apr 03, 02:13 33.70029° -118.20034° 30 min 0.02 0.00
2018 Apr 03, 01:43 33.70029° -118.20034° 30 min 0.02 0.00
180°
2018 Apr 03, 01:13 33.70033° -118.20034° 30 min 0.02 0.00
180°
2018 Apr 03, 00:43 33.70034° -118.20034° 30 min 0.02 0.01
180°
2018 Apr 03, 00:13 33.70038° -118.20034° 30 min 0.02 0.01
149°
2018 Apr 02, 23:43 33.70043° -118.20038° 30 min 0.02 0.01
140°
2018 Apr 02, 23:13 33.70048° -118.20042° 30 min 0.01 0.01
124°
2018 Apr 02, 22:43 33.70054° -118.20053° 30 min 0.01 0.03
64°
2018 Apr 02, 22:13 33.70042° -118.20083° 30 min 0.01 0.01
15°
2018 Apr 02, 21:43 33.70035° -118.20085° 30 min 0.01 0.00
90°
2018 Apr 02, 21:13 33.70035° -118.20087° 30 min 0.01 0.01
2018 Apr 02, 20:43 33.70028° -118.20087° 30 min 0.01 0.01
2018 Apr 02, 20:13 33.70024° -118.20087° 30 min 0.01 0.01
197°
2018 Apr 02, 19:43 33.70030° -118.20085° 30 min 0.01 0.00
32°
2018 Apr 02, 19:13 33.70027° -118.20087° 30 min 0.01 0.00
270°
2018 Apr 02, 18:43 33.70027° -118.20085° 30 min 0.01 0.01
164°
2018 Apr 02, 18:13 33.70034° -118.20087° 30 min 0.01 0.01
318°
2018 Apr 02, 17:43 33.70029° -118.20083° 30 min 0.01 0.02
193°
2018 Apr 02, 17:13 33.70043° -118.20079° 30 min 0.01 0.01
221°
2018 Apr 02, 16:43 33.70050° -118.20072° 30 min 0.01 0.01
263°
2018 Apr 02, 16:13 33.70051° -118.20061° 30 min 0.01 0.02
301°
2018 Apr 02, 15:43 33.70044° -118.20049° 30 min 0.01 0.02
341°
2018 Apr 02, 15:13 33.70029° -118.20042° 30 min 0.01 0.00
180°
2018 Apr 02, 14:43 33.70033° -118.20042° 30 min 0.01 0.00
2018 Apr 02, 14:13 33.70030° -118.20042° 30 min 0.01 0.00
281°
2018 Apr 02, 13:43 33.70029° -118.20038° 30 min 0.01 0.00
2018 Apr 02, 13:13 33.70028° -118.20038° 30 min 0.01 0.00
90°
2018 Apr 02, 12:43 33.70028° -118.20040° 30 min 0.01 0.00
40°
2018 Apr 02, 12:13 33.70026° -118.20042° 30 min 0.01 0.00
2018 Apr 02, 11:43 33.70026° -118.20042° 30 min 0.01 0.01
44°
2018 Apr 02, 11:13 33.70021° -118.20049° 30 min 0.01 0.02
78°
2018 Apr 02, 10:43 33.70016° -118.20072° 30 min 0.01 0.01
90°
2018 Apr 02, 10:13 33.70016° -118.20083° 30 min 0.01 0.00
2018 Apr 02, 09:43 33.70013° -118.20083° 30 min 0.01 0.00
2018 Apr 02, 09:13 33.70013° -118.20083° 30 min 0.01 0.00
2018 Apr 02, 08:43 33.70013° -118.20083° 30 min 0.01 0.00
112°
2018 Apr 02, 08:13 33.70014° -118.20085° 30 min 0.01 0.00
292°
2018 Apr 02, 07:43 33.70013° -118.20083° 30 min 0.01 0.00
270°
2018 Apr 02, 07:13 33.70013° -118.20081° 30 min 0.01 0.00
270°
2018 Apr 02, 06:43 33.70013° -118.20079° 30 min 0.01 0.01
281°
2018 Apr 02, 06:13 33.70012° -118.20072° 30 min 0.01 0.00
135°
2018 Apr 02, 05:43 33.70014° -118.20074° 30 min 0.01 0.01
270°
2018 Apr 02, 05:13 33.70014° -118.20068° 30 min 0.01 0.02
273°
2018 Apr 02, 04:43 33.70013° -118.20051° 30 min 0.01 0.02
229°
2018 Apr 02, 04:13 33.70023° -118.20038° 30 min 0.02 0.01
180°
2018 Apr 02, 03:43 33.70027° -118.20038° 30 min 0.01 0.00
209°
2018 Apr 02, 03:13 33.70029° -118.20036° 30 min 0.02 0.01
204°
2018 Apr 02, 02:43 33.70034° -118.20034° 30 min 0.02 0.00
180°
2018 Apr 02, 02:13 33.70035° -118.20034° 30 min 0.02 0.00
121°
2018 Apr 02, 01:43 33.70036° -118.20036° 30 min 0.02 0.01
180°
2018 Apr 02, 01:13 33.70040° -118.20036° 30 min 0.02 0.00
331°
2018 Apr 02, 00:43 33.70037° -118.20034° 30 min 0.02 0.00
180°
2018 Apr 02, 00:13 33.70040° -118.20034° 30 min 0.02 0.00
90°
2018 Apr 01, 23:43 33.70040° -118.20036° 30 min 0.02 0.01
163°
2018 Apr 01, 23:13 33.70044° -118.20038° 30 min 0.02 0.00
107°
2018 Apr 01, 22:43 33.70045° -118.20042° 30 min 0.01 0.01
121°
2018 Apr 01, 22:13 33.70051° -118.20053° 30 min 0.01 0.02
80°
2018 Apr 01, 21:43 33.70048° -118.20074° 30 min 0.01 0.01
34°
2018 Apr 01, 21:13 33.70042° -118.20079° 30 min 0.01 0.01
40°
2018 Apr 01, 20:43 33.70036° -118.20085° 30 min 0.01 0.00
40°
2018 Apr 01, 20:13 33.70034° -118.20087° 30 min 0.01 0.00
2018 Apr 01, 19:43 33.70031° -118.20087° 30 min 0.01 0.00
2018 Apr 01, 19:13 33.70030° -118.20087° 30 min 0.01 0.00
140°
2018 Apr 01, 18:43 33.70033° -118.20090° 30 min 0.01 0.00
2018 Apr 01, 18:13 33.70033° -118.20090° 30 min 0.01 0.01
203°
2018 Apr 01, 17:43 33.70041° -118.20085° 30 min 0.01 0.00
248°
2018 Apr 01, 17:13 33.70042° -118.20083° 30 min 0.01 0.00
180°
2018 Apr 01, 16:43 33.70044° -118.20083° 30 min 0.01 0.00
180°
2018 Apr 01, 16:13 33.70045° -118.20083° 30 min 0.01 0.00
234°
2018 Apr 01, 15:43 33.70048° -118.20079° 30 min 0.01 0.01
251°
2018 Apr 01, 15:13 33.70051° -118.20068° 30 min 0.01 0.00
270°
2018 Apr 01, 14:43 33.70051° -118.20064° 30 min 0.01 0.02
288°
2018 Apr 01, 14:13 33.70047° -118.20049° 30 min 0.01 0.00
340°
2018 Apr 01, 13:43 33.70043° -118.20047° 30 min 0.01 0.01
297°
2018 Apr 01, 13:13 33.70041° -118.20042° 30 min 0.01 0.00
2018 Apr 01, 12:43 33.70039° -118.20042° 30 min 0.01 0.00
2018 Apr 01, 12:13 33.70039° -118.20042° 30 min 0.01 0.00
2018 Apr 01, 11:43 33.70036° -118.20042° 30 min 0.01 0.00
180°
2018 Apr 01, 11:13 33.70039° -118.20042° 30 min 0.01 0.00
2018 Apr 01, 10:43 33.70039° -118.20042° 30 min 0.01 0.00
180°
2018 Apr 01, 10:13 33.70040° -118.20042° 30 min 0.01 0.00
2018 Apr 01, 09:43 33.70037° -118.20042° 30 min 0.01 0.00
32°
2018 Apr 01, 09:13 33.70034° -118.20045° 30 min 0.01 0.03
29°
2018 Apr 01, 08:43 33.70014° -118.20058° 30 min 0.01 0.01
31°
2018 Apr 01, 08:13 33.70009° -118.20061° 30 min 0.01 0.00
73°
2018 Apr 01, 07:43 33.70008° -118.20066° 30 min 0.02 0.00
180°
2018 Apr 01, 07:13 33.70010° -118.20066° 30 min 0.01 0.01
277°
2018 Apr 01, 06:43 33.70009° -118.20055° 30 min 0.02 0.01
227°
2018 Apr 01, 06:13 33.70015° -118.20047° 30 min 0.01 0.01
227°
2018 Apr 01, 05:43 33.70021° -118.20040° 30 min 0.02 0.01
192°
2018 Apr 01, 05:13 33.70029° -118.20038° 30 min 0.01 0.00
270°
2018 Apr 01, 04:43 33.70029° -118.20036° 30 min 0.02 0.00
270°
2018 Apr 01, 04:13 33.70029° -118.20034° 30 min 0.02 0.00
2018 Apr 01, 03:43 33.70027° -118.20034° 30 min 0.02 0.00
180°
2018 Apr 01, 03:13 33.70028° -118.20034° 30 min 0.02 0.00
2018 Apr 01, 02:43 33.70028° -118.20034° 30 min 0.02 0.00
180°
2018 Apr 01, 02:13 33.70030° -118.20034° 30 min 0.02 0.00
180°
2018 Apr 01, 01:43 33.70031° -118.20034° 30 min 0.02 0.00
180°
2018 Apr 01, 01:13 33.70034° -118.20034° 30 min 0.02 0.00
180°
2018 Apr 01, 00:43 33.70037° -118.20034° 30 min 0.02 0.00
2018 Apr 01, 00:13 33.70037° -118.20034° 30 min 0.02 0.00
328°
2018 Mar 31, 23:43 33.70034° -118.20032° 30 min 0.02 0.00
90°
2018 Mar 31, 23:13 33.70034° -118.20034° 30 min 0.02 0.00
320°
2018 Mar 31, 22:43 33.70031° -118.20032° 30 min 0.02 0.00
140°
2018 Mar 31, 22:13 33.70034° -118.20034° 30 min 0.02 0.00
180°
2018 Mar 31, 21:43 33.70037° -118.20034° 30 min 0.02 0.00
180°
2018 Mar 31, 21:13 33.70038° -118.20034° 30 min 0.02 0.00
180°
2018 Mar 31, 20:43 33.70039° -118.20034° 30 min 0.02 0.00
110°
2018 Mar 31, 20:13 33.70040° -118.20038° 30 min 0.02 0.01
133°
2018 Mar 31, 19:43 33.70049° -118.20049° 30 min 0.01 0.02
94°
2018 Mar 31, 19:13 33.70050° -118.20066° 30 min 0.01 0.01
71°
2018 Mar 31, 18:43 33.70047° -118.20077° 30 min 0.01 0.01
59°
2018 Mar 31, 18:13 33.70044° -118.20081° 30 min 0.01 0.00
220°
2018 Mar 31, 17:43 33.70047° -118.20079° 30 min 0.01 0.00
2018 Mar 31, 17:13 33.70045° -118.20079° 30 min 0.01 0.00
90°
2018 Mar 31, 16:43 33.70045° -118.20081° 30 min 0.01 0.00
220°
2018 Mar 31, 16:13 33.70048° -118.20079° 30 min 0.01 0.00
2018 Mar 31, 15:43 33.70047° -118.20079° 30 min 0.01 0.01
241°
2018 Mar 31, 15:13 33.70051° -118.20070° 30 min 0.01 0.02
296°
2018 Mar 31, 14:43 33.70042° -118.20049° 30 min 0.01 0.01
291°
2018 Mar 31, 14:13 33.70040° -118.20042° 30 min 0.01 0.01
312°
2018 Mar 31, 13:43 33.70037° -118.20038° 30 min 0.01 0.00
2018 Mar 31, 13:13 33.70036° -118.20038° 30 min 0.01 0.00
340°
2018 Mar 31, 12:43 33.70033° -118.20036° 30 min 0.02 0.00
48°
2018 Mar 31, 12:13 33.70031° -118.20038° 30 min 0.01 0.00
290°
2018 Mar 31, 11:43 33.70030° -118.20034° 30 min 0.02 0.00
68°
2018 Mar 31, 11:13 33.70029° -118.20036° 30 min 0.02 0.00
180°